createdAt,value
2022-11-02T00:00:27.838Z,98624.94
2022-11-02T00:01:39.558Z,98632.41
2022-11-02T00:02:42.482Z,98633.69
2022-11-02T00:03:45.462Z,98632.25
2022-11-02T00:04:48.391Z,98632.97
2022-11-02T00:05:51.306Z,98638.59
2022-11-02T00:06:54.344Z,98641.34
2022-11-02T00:07:57.423Z,98640.06
2022-11-02T00:09:00.858Z,98636.59
2022-11-02T00:10:05.096Z,98626.22
2022-11-02T00:11:08.106Z,98626.22
2022-11-02T00:12:11.147Z,98635.34
2022-11-02T00:13:14.008Z,98639.88
2022-11-02T00:14:16.990Z,98636.25
2022-11-02T00:15:20.359Z,98642.09
2022-11-02T00:16:25.582Z,98645.37
2022-11-02T00:17:30.307Z,98643.53
2022-11-02T00:18:35.158Z,98642.66
2022-11-02T00:19:38.330Z,98653.59
2022-11-02T00:20:42.944Z,98651.94
2022-11-02T00:21:46.434Z,98652.69
2022-11-02T00:22:52.987Z,98635.69
2022-11-02T00:23:57.793Z,98641.00
2022-11-02T00:25:04.280Z,98644.84
2022-11-02T00:26:07.414Z,98643.75
2022-11-02T00:27:11.589Z,98640.06
2022-11-02T00:28:15.820Z,98634.41
2022-11-02T00:29:18.682Z,98631.84
2022-11-02T00:30:21.778Z,98629.66
2022-11-02T00:31:24.650Z,98630.91
2022-11-02T00:32:27.978Z,98633.66
2022-11-02T00:33:31.290Z,98641.69
2022-11-02T00:34:34.066Z,98632.22
2022-11-02T00:35:38.302Z,98638.00
2022-11-02T00:36:41.397Z,98636.00
2022-11-02T00:37:44.211Z,98644.25
2022-11-02T00:38:47.118Z,98651.72
2022-11-02T00:39:49.876Z,98646.03
2022-11-02T00:40:52.847Z,98653.34
2022-11-02T00:41:55.599Z,98653.69
2022-11-02T00:42:58.556Z,98654.44
2022-11-02T00:44:01.472Z,98659.91
2022-11-02T00:45:05.319Z,98655.69
2022-11-02T00:46:08.096Z,98650.75
2022-11-02T00:47:12.021Z,98645.81
2022-11-02T00:48:14.836Z,98640.91
2022-11-02T00:49:17.714Z,98635.03
2022-11-02T00:50:20.784Z,98620.03
2022-11-02T00:51:23.729Z,98626.63
2022-11-02T00:52:26.562Z,98632.09
2022-11-02T00:53:29.490Z,98627.00
2022-11-02T00:54:32.306Z,98623.53
2022-11-02T00:55:35.207Z,98620.06
2022-11-02T00:56:39.480Z,98623.34
2022-11-02T00:57:42.731Z,98633.75
2022-11-02T00:58:45.596Z,98631.38
2022-11-02T00:59:51.516Z,98630.06
2022-11-02T01:00:56.124Z,98632.81
2022-11-02T01:01:59.095Z,98629.50
2022-11-02T01:03:02.932Z,98635.34
2022-11-02T01:04:05.819Z,98639.00
2022-11-02T01:05:09.878Z,98630.22
2022-11-02T01:06:15.306Z,98634.41
2022-11-02T01:07:21.662Z,98635.31
2022-11-02T01:08:24.710Z,98638.94
2022-11-02T01:09:27.588Z,98645.31
2022-11-02T01:10:30.639Z,98646.06
2022-11-02T01:11:33.321Z,98639.66
2022-11-02T01:12:40.403Z,98643.31
2022-11-02T01:13:43.263Z,98643.66
2022-11-02T01:14:49.860Z,98644.37
2022-11-02T01:15:52.771Z,98633.25
2022-11-02T01:16:58.141Z,98640.19
2022-11-02T01:18:01.354Z,98638.19
2022-11-02T01:19:04.529Z,98635.28
2022-11-02T01:20:08.447Z,98627.94
2022-11-02T01:21:11.264Z,98628.50
2022-11-02T01:22:14.200Z,98628.66
2022-11-02T01:23:16.982Z,98629.97
2022-11-02T01:24:20.194Z,98622.66
2022-11-02T01:25:23.136Z,98619.19
2022-11-02T01:26:26.057Z,98617.16
2022-11-02T01:27:28.963Z,98617.34
2022-11-02T01:28:32.452Z,98622.25
2022-11-02T01:29:35.243Z,98615.66
2022-11-02T01:30:39.130Z,98615.81
2022-11-02T01:31:42.030Z,98602.31
2022-11-02T01:32:44.813Z,98609.25
2022-11-02T01:33:48.017Z,98602.62
2022-11-02T01:34:50.914Z,98602.62
2022-11-02T01:35:54.621Z,98607.72
2022-11-02T01:36:57.580Z,98607.91
2022-11-02T01:38:00.766Z,98606.22
2022-11-02T01:39:04.501Z,98608.44
2022-11-02T01:40:07.955Z,98613.91
2022-11-02T01:41:12.478Z,98616.25
2022-11-02T01:42:24.519Z,98621.34
2022-11-02T01:43:36.291Z,98618.59
2022-11-02T01:44:41.604Z,98617.16
2022-11-02T01:45:44.583Z,98616.41
2022-11-02T01:46:48.039Z,98610.53
2022-11-02T01:47:50.952Z,98611.44
2022-11-02T01:49:01.213Z,98609.97
2022-11-02T01:50:13.053Z,98613.47
2022-11-02T01:51:34.453Z,98600.88
2022-11-02T01:52:39.027Z,98617.16
2022-11-02T01:53:46.300Z,98618.59
2022-11-02T01:54:59.453Z,98616.00
2022-11-02T01:56:02.621Z,98613.78
2022-11-02T01:57:08.831Z,98622.56
2022-11-02T01:58:12.794Z,98618.19
2022-11-02T01:59:22.102Z,98621.69
2022-11-02T02:00:25.106Z,98614.34
2022-11-02T02:01:28.504Z,98613.06
2022-11-02T02:02:35.564Z,98613.78
2022-11-02T02:03:40.339Z,98610.31
2022-11-02T02:04:44.407Z,98611.59
2022-11-02T02:06:11.015Z,98609.59
2022-11-02T02:07:15.083Z,98606.13
2022-11-02T02:08:20.731Z,98610.16
2022-11-02T02:09:23.751Z,98616.28
2022-11-02T02:10:26.516Z,98608.63
2022-11-02T02:11:34.659Z,98611.75
2022-11-02T02:12:41.527Z,98617.81
2022-11-02T02:13:44.295Z,98609.44
2022-11-02T02:14:47.633Z,98611.03
2022-11-02T02:16:19.344Z,98607.91
2022-11-02T02:17:41.450Z,98609.19
2022-11-02T02:19:07.006Z,98611.38
2022-11-02T02:20:37.314Z,98611.72
2022-11-02T02:21:54.382Z,98614.13
2022-11-02T02:23:18.689Z,98610.66
2022-11-02T02:24:38.576Z,98608.06
2022-11-02T02:26:18.592Z,98608.06
2022-11-02T02:27:30.675Z,98609.69
2022-11-02T02:28:45.534Z,98612.44
2022-11-02T02:30:02.422Z,98622.84
2022-11-02T02:31:14.431Z,98618.41
2022-11-02T02:32:28.910Z,98606.31
2022-11-02T02:33:54.758Z,98612.38
2022-11-02T02:35:10.371Z,98614.75
2022-11-02T02:36:23.277Z,98618.06
2022-11-02T02:37:38.188Z,98615.53
2022-11-02T02:38:44.378Z,98613.66
2022-11-02T02:40:03.570Z,98629.37
2022-11-02T02:41:30.490Z,98623.91
2022-11-02T02:42:39.767Z,98627.38
2022-11-02T02:43:47.695Z,98631.41
2022-11-02T02:45:05.108Z,98639.63
2022-11-02T02:46:20.535Z,98635.44
2022-11-02T02:47:28.605Z,98634.13
2022-11-02T02:48:35.650Z,98625.91
2022-11-02T02:49:48.600Z,98626.78
2022-11-02T02:50:56.591Z,98626.41
2022-11-02T02:52:00.712Z,98631.16
2022-11-02T02:53:07.603Z,98633.72
2022-11-02T02:54:17.000Z,98639.97
2022-11-02T02:55:27.445Z,98636.66
2022-11-02T02:56:37.424Z,98639.22
2022-11-02T02:57:40.341Z,98664.06
2022-11-02T02:59:23.081Z,98660.41
2022-11-02T03:00:26.143Z,98652.69
2022-11-02T03:01:29.931Z,98661.09
2022-11-02T03:02:36.804Z,98660.37
2022-11-02T03:03:42.514Z,98660.91
2022-11-02T03:04:45.347Z,98659.31
2022-11-02T03:06:03.655Z,98653.97
2022-11-02T03:07:07.436Z,98663.66
2022-11-02T03:08:16.980Z,98665.69
2022-11-02T03:09:35.062Z,98675.03
2022-11-02T03:10:53.178Z,98678.88
2022-11-02T03:12:18.369Z,98674.84
2022-11-02T03:13:33.837Z,98670.66
2022-11-02T03:15:00.932Z,98682.91
2022-11-02T03:16:17.875Z,98689.84
2022-11-02T03:17:32.557Z,98686.78
2022-11-02T03:18:49.814Z,98687.12
2022-11-02T03:20:07.256Z,98679.09
2022-11-02T03:21:20.944Z,98690.63
2022-11-02T03:22:34.108Z,98685.53
2022-11-02T03:23:55.025Z,98681.00
2022-11-02T03:25:03.841Z,98680.13
2022-11-02T03:26:24.331Z,98678.81
2022-11-02T03:27:35.701Z,98684.66
2022-11-02T03:30:24.899Z,98693.97
2022-11-02T03:31:37.944Z,98696.41
2022-11-02T03:32:59.366Z,98694.19
2022-11-02T03:34:17.857Z,98689.84
2022-11-02T03:35:49.161Z,98689.28
2022-11-02T03:37:07.135Z,98688.41
2022-11-02T03:38:20.090Z,98695.13
2022-11-02T03:39:35.655Z,98695.91
2022-11-02T03:40:44.914Z,98686.75
2022-11-02T03:41:50.334Z,98692.41
2022-11-02T03:42:54.769Z,98683.28
2022-11-02T03:44:04.137Z,98684.19
2022-11-02T03:45:20.814Z,98688.00
2022-11-02T03:46:24.337Z,98681.06
2022-11-02T03:47:31.377Z,98680.34
2022-11-02T03:48:42.386Z,98679.78
2022-11-02T03:49:48.228Z,98675.00
2022-11-02T03:50:53.820Z,98677.03
2022-11-02T03:52:02.219Z,98677.31
2022-11-02T03:53:12.704Z,98676.56
2022-11-02T03:54:35.774Z,98670.94
2022-11-02T03:55:43.495Z,98666.78
2022-11-02T03:56:50.456Z,98667.47
2022-11-02T03:57:53.341Z,98660.53
2022-11-02T03:58:57.456Z,98655.69
2022-11-02T04:00:13.779Z,98658.25
2022-11-02T04:01:19.466Z,98655.34
2022-11-02T04:02:22.920Z,98656.41
2022-11-02T04:03:26.745Z,98658.09
2022-11-02T04:04:29.854Z,98658.09
2022-11-02T04:05:35.611Z,98662.47
2022-11-02T04:06:39.702Z,98668.44
2022-11-02T04:08:05.774Z,98671.34
2022-11-02T04:09:09.438Z,98676.28
2022-11-02T04:10:12.271Z,98681.34
2022-11-02T04:11:35.127Z,98689.03
2022-11-02T04:12:56.593Z,98680.81
2022-11-02T04:14:18.033Z,98687.03
2022-11-02T04:15:20.897Z,98682.81
2022-11-02T04:16:27.743Z,98688.81
2022-11-02T04:17:51.530Z,98687.66
2022-11-02T04:19:13.035Z,98695.00
2022-11-02T04:20:16.108Z,98698.31
2022-11-02T04:21:18.935Z,98694.28
2022-11-02T04:22:41.025Z,98702.69
2022-11-02T04:24:02.375Z,98699.78
2022-11-02T04:25:21.453Z,98716.78
2022-11-02T04:26:24.457Z,98712.59
2022-11-02T04:27:27.227Z,98710.91
2022-11-02T04:28:30.032Z,98709.62
2022-11-02T04:29:32.974Z,98719.16
2022-11-02T04:30:35.855Z,98720.44
2022-11-02T04:31:38.856Z,98716.97
2022-11-02T04:33:05.100Z,98717.50
2022-11-02T04:34:07.984Z,98714.78
2022-11-02T04:35:10.930Z,98719.16
2022-11-02T04:36:14.097Z,98716.00
2022-11-02T04:37:35.460Z,98714.88
2022-11-02T04:38:41.778Z,98720.03
2022-11-02T04:39:44.505Z,98718.75
2022-11-02T04:40:47.661Z,98716.00
2022-11-02T04:41:50.865Z,98722.38
2022-11-02T04:42:53.737Z,98718.91
2022-11-02T04:43:57.077Z,98725.34
2022-11-02T04:44:59.898Z,98720.44
2022-11-02T04:46:02.747Z,98717.84
2022-11-02T04:47:05.745Z,98719.47
2022-11-02T04:48:10.339Z,98720.94
2022-11-02T04:49:17.544Z,98721.75
2022-11-02T04:50:20.309Z,98722.84
2022-11-02T04:51:25.218Z,98725.97
2022-11-02T04:52:28.187Z,98723.25
2022-11-02T04:53:31.304Z,98722.69
2022-11-02T04:54:34.136Z,98723.00
2022-11-02T04:55:37.143Z,98726.16
2022-11-02T04:56:40.868Z,98722.50
2022-11-02T04:57:46.290Z,98725.25
2022-11-02T04:58:53.779Z,98728.19
2022-11-02T04:59:56.607Z,98736.97
2022-11-02T05:00:59.482Z,98732.75
2022-11-02T05:02:02.320Z,98726.69
2022-11-02T05:03:09.582Z,98732.38
2022-11-02T05:04:15.112Z,98726.69
2022-11-02T05:05:18.316Z,98736.97
2022-11-02T05:06:26.719Z,98739.69
2022-11-02T05:07:29.592Z,98724.72
2022-11-02T05:08:32.941Z,98732.94
2022-11-02T05:09:35.790Z,98735.28
2022-11-02T05:10:38.743Z,98734.72
2022-11-02T05:11:41.764Z,98731.03
2022-11-02T05:12:44.779Z,98733.72
2022-11-02T05:13:47.759Z,98727.91
2022-11-02T05:14:50.632Z,98721.06
2022-11-02T05:16:01.713Z,98731.13
2022-11-02T05:17:04.584Z,98722.50
2022-11-02T05:18:08.030Z,98726.16
2022-11-02T05:19:11.386Z,98725.97
2022-11-02T05:20:14.514Z,98728.91
2022-11-02T05:21:17.385Z,98722.25
2022-11-02T05:22:21.816Z,98726.19
2022-11-02T05:23:25.143Z,98735.50
2022-11-02T05:24:27.978Z,98731.69
2022-11-02T05:25:40.833Z,98730.09
2022-11-02T05:26:43.837Z,98730.56
2022-11-02T05:27:46.764Z,98729.69
2022-11-02T05:28:51.543Z,98729.13
2022-11-02T05:29:54.460Z,98737.66
2022-11-02T05:31:00.701Z,98741.13
2022-11-02T05:32:06.907Z,98735.50
2022-11-02T05:33:10.034Z,98738.25
2022-11-02T05:34:13.018Z,98738.97
2022-11-02T05:35:16.213Z,98742.75
2022-11-02T05:36:19.190Z,98732.25
2022-11-02T05:37:22.069Z,98729.66
2022-11-02T05:38:26.801Z,98736.28
2022-11-02T05:39:29.708Z,98726.19
2022-11-02T05:40:37.688Z,98724.72
2022-11-02T05:41:40.510Z,98724.00
2022-11-02T05:42:43.329Z,98734.34
2022-11-02T05:43:46.322Z,98728.41
2022-11-02T05:44:49.048Z,98735.69
2022-11-02T05:45:53.704Z,98727.63
2022-11-02T05:46:56.586Z,98731.62
2022-11-02T05:48:08.508Z,98736.16
2022-11-02T05:49:14.669Z,98728.13
2022-11-02T05:50:17.555Z,98727.13
2022-11-02T05:51:20.401Z,98726.31
2022-11-02T05:52:23.383Z,98727.19
2022-11-02T05:53:27.072Z,98727.09
2022-11-02T05:54:29.909Z,98722.91
2022-11-02T05:55:32.724Z,98723.94
2022-11-02T05:56:36.156Z,98719.22
2022-11-02T05:57:39.575Z,98717.09
2022-11-02T05:58:42.710Z,98723.44
2022-11-02T05:59:48.377Z,98725.94
2022-11-02T06:00:52.464Z,98717.44
2022-11-02T06:01:55.455Z,98711.25
2022-11-02T06:02:59.219Z,98716.59
2022-11-02T06:04:02.064Z,98722.41
2022-11-02T06:05:05.186Z,98715.59
2022-11-02T06:06:10.963Z,98721.69
2022-11-02T06:07:17.704Z,98716.91
2022-11-02T06:08:20.729Z,98722.72
2022-11-02T06:09:23.693Z,98723.84
2022-11-02T06:10:28.040Z,98725.16
2022-11-02T06:11:30.854Z,98724.72
2022-11-02T06:12:33.849Z,98714.44
2022-11-02T06:13:37.273Z,98714.00
2022-11-02T06:14:40.143Z,98714.31
2022-11-02T06:15:42.999Z,98715.31
2022-11-02T06:16:45.878Z,98716.78
2022-11-02T06:17:48.842Z,98714.44
2022-11-02T06:18:52.068Z,98715.03
2022-11-02T06:19:54.868Z,98719.66
2022-11-02T06:20:59.178Z,98716.34
2022-11-02T06:22:01.990Z,98717.06
2022-11-02T06:23:05.063Z,98717.34
2022-11-02T06:24:08.910Z,98722.00
2022-11-02T06:25:12.501Z,98726.63
2022-11-02T06:26:15.667Z,98721.69
2022-11-02T06:27:18.538Z,98719.38
2022-11-02T06:28:23.312Z,98729.06
2022-11-02T06:29:26.183Z,98732.38
2022-11-02T06:30:29.001Z,98747.06
2022-11-02T06:31:31.865Z,98741.25
2022-11-02T06:32:35.300Z,98755.62
2022-11-02T06:33:38.152Z,98752.28
2022-11-02T06:34:41.017Z,98755.34
2022-11-02T06:35:54.165Z,98758.97
2022-11-02T06:37:00.855Z,98758.09
2022-11-02T06:38:03.924Z,98763.47
2022-11-02T06:39:07.285Z,98773.47
2022-11-02T06:40:11.433Z,98773.19
2022-11-02T06:41:14.423Z,98763.88
2022-11-02T06:42:17.299Z,98769.84
2022-11-02T06:43:20.358Z,98773.16
2022-11-02T06:44:24.837Z,98775.19
2022-11-02T06:45:27.653Z,98772.75
2022-11-02T06:46:32.496Z,98778.25
2022-11-02T06:47:38.916Z,98780.44
2022-11-02T06:48:41.906Z,98780.13
2022-11-02T06:49:44.668Z,98782.44
2022-11-02T06:50:50.863Z,98789.97
2022-11-02T06:51:53.803Z,98779.66
2022-11-02T06:52:56.762Z,98785.72
2022-11-02T06:54:02.231Z,98779.91
2022-11-02T06:55:09.415Z,98784.84
2022-11-02T06:56:12.780Z,98784.69
2022-11-02T06:57:15.719Z,98778.00
2022-11-02T06:58:18.489Z,98779.84
2022-11-02T06:59:21.351Z,98779.84
2022-11-02T07:00:24.393Z,98786.66
2022-11-02T07:01:27.288Z,98777.50
2022-11-02T07:02:30.534Z,98775.19
2022-11-02T07:03:33.821Z,98779.09
2022-11-02T07:04:36.714Z,98775.19
2022-11-02T07:05:39.627Z,98777.78
2022-11-02T07:06:42.558Z,98778.50
2022-11-02T07:07:45.363Z,98776.50
2022-11-02T07:08:48.151Z,98788.22
2022-11-02T07:09:50.936Z,98779.97
2022-11-02T07:10:54.515Z,98787.66
2022-11-02T07:11:57.244Z,98789.69
2022-11-02T07:13:00.131Z,98785.62
2022-11-02T07:14:03.064Z,98785.94
2022-11-02T07:15:06.434Z,98784.06
2022-11-02T07:16:09.427Z,98784.25
2022-11-02T07:17:12.354Z,98780.19
2022-11-02T07:18:15.506Z,98773.37
2022-11-02T07:19:18.542Z,98772.66
2022-11-02T07:20:21.663Z,98772.78
2022-11-02T07:21:24.438Z,98778.47
2022-11-02T07:22:27.358Z,98764.69
2022-11-02T07:23:30.677Z,98766.87
2022-11-02T07:24:33.558Z,98767.00
2022-11-02T07:25:36.683Z,98765.16
2022-11-02T07:26:39.545Z,98762.53
2022-11-02T07:27:42.416Z,98771.81
2022-11-02T07:28:46.453Z,98769.50
2022-11-02T07:29:49.697Z,98775.88
2022-11-02T07:30:55.152Z,98774.75
2022-11-02T07:31:58.020Z,98783.31
2022-11-02T07:33:01.383Z,98783.59
2022-11-02T07:34:04.435Z,98789.41
2022-11-02T07:35:09.407Z,98784.91
2022-11-02T07:36:12.384Z,98791.00
2022-11-02T07:37:15.327Z,98788.13
2022-11-02T07:38:18.535Z,98780.72
2022-11-02T07:39:21.533Z,98791.19
2022-11-02T07:40:24.734Z,98790.44
2022-11-02T07:41:27.801Z,98793.06
2022-11-02T07:42:30.802Z,98793.06
2022-11-02T07:43:33.815Z,98790.28
2022-11-02T07:44:36.947Z,98793.78
2022-11-02T07:45:39.722Z,98781.59
2022-11-02T07:46:42.967Z,98787.84
2022-11-02T07:47:46.206Z,98789.16
2022-11-02T07:48:49.167Z,98791.75
2022-11-02T07:49:52.327Z,98797.84
2022-11-02T07:50:57.916Z,98796.69
2022-11-02T07:52:00.659Z,98797.97
2022-11-02T07:53:03.608Z,98799.88
2022-11-02T07:54:06.915Z,98797.13
2022-11-02T07:55:09.800Z,98794.22
2022-11-02T07:56:15.718Z,98797.53
2022-11-02T07:57:18.497Z,98789.44
2022-11-02T07:58:21.547Z,98785.38
2022-11-02T07:59:24.338Z,98788.41
2022-11-02T08:00:30.325Z,98791.19
2022-11-02T08:01:33.183Z,98784.50
2022-11-02T08:02:36.265Z,98787.41
2022-11-02T08:03:39.117Z,98793.50
2022-11-02T08:04:44.873Z,98783.78
2022-11-02T08:05:48.309Z,98784.66
2022-11-02T08:06:51.245Z,98791.16
2022-11-02T08:08:02.011Z,98787.84
2022-11-02T08:09:05.028Z,98785.34
2022-11-02T08:10:08.428Z,98787.09
2022-11-02T08:11:11.400Z,98788.25
2022-11-02T08:12:14.226Z,98784.06
2022-11-02T08:13:20.512Z,98786.09
2022-11-02T08:14:23.262Z,98791.59
2022-11-02T08:15:26.695Z,98793.62
2022-11-02T08:16:30.368Z,98787.53
2022-11-02T08:17:33.163Z,98787.69
2022-11-02T08:18:36.450Z,98785.06
2022-11-02T08:19:39.265Z,98785.78
2022-11-02T08:20:42.406Z,98778.97
2022-11-02T08:21:45.286Z,98786.09
2022-11-02T08:22:48.094Z,98785.78
2022-11-02T08:23:53.630Z,98768.53
2022-11-02T08:25:00.352Z,98776.50
2022-11-02T08:26:03.250Z,98774.72
2022-11-02T08:27:05.949Z,98777.62
2022-11-02T08:28:13.395Z,98777.03
2022-11-02T08:29:16.215Z,98777.91
2022-11-02T08:30:19.133Z,98779.38
2022-11-02T08:31:22.069Z,98786.47
2022-11-02T08:32:24.814Z,98781.25
2022-11-02T08:33:28.262Z,98786.91
2022-11-02T08:34:31.120Z,98787.31
2022-11-02T08:35:35.018Z,98785.84
2022-11-02T08:36:37.877Z,98788.19
2022-11-02T08:37:40.793Z,98786.41
2022-11-02T08:38:48.320Z,98777.69
2022-11-02T08:39:51.191Z,98779.28
2022-11-02T08:40:55.648Z,98778.09
2022-11-02T08:41:58.480Z,98781.66
2022-11-02T08:43:04.344Z,98778.25
2022-11-02T08:44:07.220Z,98780.81
2022-11-02T08:45:10.222Z,98780.28
2022-11-02T08:46:15.222Z,98774.72
2022-11-02T08:47:19.111Z,98780.16
2022-11-02T08:48:21.938Z,98778.91
2022-11-02T08:49:24.712Z,98780.31
2022-11-02T08:50:28.711Z,98779.09
2022-11-02T08:51:32.153Z,98782.13
2022-11-02T08:52:40.713Z,98785.62
2022-11-02T08:53:48.546Z,98782.78
2022-11-02T08:54:54.131Z,98782.44
2022-11-02T08:55:59.525Z,98783.78
2022-11-02T08:57:02.313Z,98790.25
2022-11-02T08:58:05.307Z,98780.78
2022-11-02T08:59:09.346Z,98779.47
2022-11-02T09:00:13.705Z,98777.41
2022-11-02T09:01:16.601Z,98783.81
2022-11-02T09:02:19.713Z,98781.16
2022-11-02T09:03:27.958Z,98775.63
2022-11-02T09:04:30.804Z,98781.16
2022-11-02T09:05:36.811Z,98784.03
2022-11-02T09:06:39.597Z,98781.87
2022-11-02T09:07:42.419Z,98771.53
2022-11-02T09:08:45.452Z,98766.16
2022-11-02T09:09:48.415Z,98773.25
2022-11-02T09:10:52.790Z,98775.06
2022-11-02T09:11:55.549Z,98769.56
2022-11-02T09:13:02.863Z,98776.81
2022-11-02T09:14:07.543Z,98774.25
2022-11-02T09:15:10.650Z,98781.66
2022-11-02T09:16:15.237Z,98780.56
2022-11-02T09:17:17.937Z,98781.16
2022-11-02T09:18:21.062Z,98780.34
2022-11-02T09:19:24.269Z,98777.47
2022-11-02T09:20:27.518Z,98777.09
2022-11-02T09:21:30.412Z,98778.91
2022-11-02T09:22:33.161Z,98774.09
2022-11-02T09:23:35.958Z,98772.75
2022-11-02T09:24:38.628Z,98770.59
2022-11-02T09:25:41.408Z,98774.81
2022-11-02T09:26:44.251Z,98776.25
2022-11-02T09:27:49.431Z,98774.19
2022-11-02T09:28:55.715Z,98772.91
2022-11-02T09:29:58.716Z,98778.44
2022-11-02T09:31:01.942Z,98770.25
2022-11-02T09:32:06.116Z,98767.72
2022-11-02T09:33:09.227Z,98776.84
2022-11-02T09:34:12.416Z,98770.34
2022-11-02T09:35:15.237Z,98780.59
2022-11-02T09:36:18.157Z,98769.16
2022-11-02T09:37:20.926Z,98767.59
2022-11-02T09:38:23.765Z,98768.16
2022-11-02T09:39:26.607Z,98772.41
2022-11-02T09:40:46.054Z,98777.34
2022-11-02T09:42:04.400Z,98770.84
2022-11-02T09:43:17.575Z,98769.62
2022-11-02T09:44:56.574Z,98772.53
2022-11-02T09:46:07.878Z,98770.50
2022-11-02T09:48:10.872Z,98769.25
2022-11-02T09:48:44.498Z,98768.53
2022-11-02T09:49:51.714Z,98772.16
2022-11-02T09:51:19.403Z,98769.50
2022-11-02T09:52:33.597Z,98771.44
2022-11-02T09:53:56.008Z,98766.50
2022-11-02T09:55:00.829Z,98765.06
2022-11-02T09:56:05.957Z,98763.00
2022-11-02T09:57:30.332Z,98763.00
2022-11-02T09:58:39.998Z,98765.66
2022-11-02T09:59:43.277Z,98766.25
2022-11-02T10:00:51.273Z,98771.31
2022-11-02T10:02:15.558Z,98767.81
2022-11-02T10:03:30.104Z,98771.44
2022-11-02T10:05:08.480Z,98772.53
2022-11-02T10:06:16.045Z,98764.78
2022-11-02T10:07:43.369Z,98764.78
2022-11-02T10:08:57.477Z,98766.09
2022-11-02T10:10:15.611Z,98761.72
2022-11-02T10:11:32.522Z,98769.75
2022-11-02T10:12:47.997Z,98762.41
2022-11-02T10:14:19.535Z,98767.34
2022-11-02T10:15:31.995Z,98763.81
2022-11-02T10:17:00.431Z,98772.97
2022-11-02T10:18:04.869Z,98763.31
2022-11-02T10:19:15.945Z,98763.63
2022-11-02T10:20:28.080Z,98756.97
2022-11-02T10:21:34.581Z,98766.28
2022-11-02T10:22:41.436Z,98758.91
2022-11-02T10:23:55.304Z,98766.56
2022-11-02T10:25:01.354Z,98763.12
2022-11-02T10:26:04.788Z,98761.66
2022-11-02T10:27:27.069Z,98759.22
2022-11-02T10:28:34.243Z,98760.44
2022-11-02T10:29:49.323Z,98758.16
2022-11-02T10:30:54.400Z,98760.16
2022-11-02T10:31:57.359Z,98759.47
2022-11-02T10:33:00.321Z,98755.56
2022-11-02T10:34:25.888Z,98760.31
2022-11-02T10:36:04.636Z,98759.50
2022-11-02T10:37:30.648Z,98754.25
2022-11-02T10:38:48.700Z,98759.22
2022-11-02T10:40:17.685Z,98754.38
2022-11-02T10:41:39.363Z,98746.13
2022-11-02T10:42:57.165Z,98762.28
2022-11-02T10:44:18.120Z,98765.87
2022-11-02T10:46:04.568Z,98766.00
2022-11-02T10:47:26.748Z,98766.56
2022-11-02T10:48:40.838Z,98762.03
2022-11-02T10:49:58.182Z,98756.03
2022-11-02T10:51:16.205Z,98756.94
2022-11-02T10:52:19.347Z,98751.19
2022-11-02T10:54:45.651Z,98752.84
2022-11-02T10:56:02.197Z,98755.19
2022-11-02T10:57:13.994Z,98752.31
2022-11-02T10:58:21.487Z,98756.50
2022-11-02T10:59:24.630Z,98756.84
2022-11-02T11:00:31.946Z,98766.91
2022-11-02T11:01:34.848Z,98754.94
2022-11-02T11:02:37.732Z,98757.00
2022-11-02T11:04:20.743Z,98755.25
2022-11-02T11:05:24.677Z,98753.94
2022-11-02T11:06:39.773Z,98756.88
2022-11-02T11:07:44.854Z,98758.09
2022-11-02T11:08:53.722Z,98753.72
2022-11-02T11:09:57.864Z,98763.12
2022-11-02T11:11:26.458Z,98756.38
2022-11-02T11:12:41.402Z,98757.44
2022-11-02T11:16:50.356Z,98766.41
2022-11-02T11:20:41.571Z,98767.88
2022-11-02T11:21:45.123Z,98770.03
2022-11-02T11:23:08.975Z,98772.50
2022-11-02T11:24:21.057Z,98765.31
2022-11-02T11:25:27.887Z,98764.88
2022-11-02T11:26:31.999Z,98767.19
2022-11-02T11:27:44.665Z,98767.28
2022-11-02T11:28:56.505Z,98767.78
2022-11-02T11:29:59.414Z,98775.22
2022-11-02T11:31:22.615Z,98769.25
2022-11-02T11:32:30.215Z,98773.34
2022-11-02T11:33:42.714Z,98766.66
2022-11-02T11:34:53.550Z,98771.66
2022-11-02T11:35:56.415Z,98770.81
2022-11-02T11:37:11.043Z,98768.78
2022-11-02T11:38:23.896Z,98769.28
2022-11-02T11:39:29.484Z,98766.06
2022-11-02T11:40:43.622Z,98768.75
2022-11-02T11:41:46.361Z,98764.31
2022-11-02T11:42:52.390Z,98774.31
2022-11-02T11:43:55.696Z,98771.69
2022-11-02T11:45:06.483Z,98768.91
2022-11-02T11:46:12.876Z,98770.97
2022-11-02T11:47:16.130Z,98772.09
2022-11-02T11:48:41.547Z,98764.16
2022-11-02T11:51:27.469Z,98767.66
2022-11-02T11:52:33.260Z,98768.69
2022-11-02T11:53:39.234Z,98768.78
2022-11-02T11:54:53.919Z,98764.03
2022-11-02T11:56:00.030Z,98771.66
2022-11-02T11:57:32.028Z,98769.09
2022-11-02T11:58:35.188Z,98761.81
2022-11-02T11:59:43.533Z,98761.63
2022-11-02T12:00:46.836Z,98747.34
2022-11-02T12:01:51.967Z,98753.13
2022-11-02T12:03:08.377Z,98747.16
2022-11-02T12:04:11.489Z,98743.84
2022-11-02T12:05:17.498Z,98745.91
2022-11-02T12:06:38.198Z,98736.13
2022-11-02T12:07:56.228Z,98742.94
2022-11-02T12:09:21.057Z,98740.16
2022-11-02T12:10:33.710Z,98737.38
2022-11-02T12:11:53.665Z,98737.88
2022-11-02T12:13:31.633Z,98733.56
2022-11-02T12:15:19.740Z,98734.63
2022-11-02T12:16:54.480Z,98730.59
2022-11-02T12:18:25.030Z,98731.62
2022-11-02T12:19:34.261Z,98730.09
2022-11-02T12:20:37.453Z,98726.59
2022-11-02T12:22:05.760Z,98728.13
2022-11-02T12:23:40.573Z,98726.69
2022-11-02T12:25:06.300Z,98726.91
2022-11-02T12:26:27.125Z,98721.84
2022-11-02T12:27:47.845Z,98720.50
2022-11-02T12:29:27.794Z,98720.63
2022-11-02T12:30:54.207Z,98708.78
2022-11-02T12:32:17.158Z,98715.88
2022-11-02T12:33:30.387Z,98713.72
2022-11-02T12:35:27.726Z,98713.63
2022-11-02T12:37:10.326Z,98716.50
2022-11-02T12:38:24.587Z,98715.59
2022-11-02T12:40:04.833Z,98708.78
2022-11-02T12:41:12.863Z,98717.03
2022-11-02T12:42:23.024Z,98713.31
2022-11-02T12:43:45.718Z,98711.88
2022-11-02T12:45:00.735Z,98716.09
2022-11-02T12:46:26.655Z,98710.63
2022-11-02T12:47:52.487Z,98708.06
2022-11-02T12:49:20.119Z,98710.63
2022-11-02T12:50:22.853Z,98709.81
2022-11-02T12:51:30.784Z,98712.06
2022-11-02T12:52:48.849Z,98706.72
2022-11-02T12:53:58.147Z,98708.16
2022-11-02T12:55:05.415Z,98707.69
2022-11-02T12:56:14.888Z,98709.94
2022-11-02T12:57:24.475Z,98706.13
2022-11-02T12:58:31.491Z,98706.84
2022-11-02T12:59:34.950Z,98698.50
2022-11-02T13:00:41.301Z,98700.06
2022-11-02T13:01:47.162Z,98714.13
2022-11-02T13:03:11.772Z,98715.38
2022-11-02T13:04:54.687Z,98702.72
2022-11-02T13:06:06.501Z,98709.84
2022-11-02T13:07:14.062Z,98706.44
2022-11-02T13:08:22.218Z,98703.56
2022-11-02T13:09:59.929Z,98698.28
2022-11-02T13:11:10.750Z,98707.69
2022-11-02T13:12:18.042Z,98707.25
2022-11-02T13:13:33.984Z,98705.09
2022-11-02T13:14:41.685Z,98704.19
2022-11-02T13:15:47.867Z,98699.09
2022-11-02T13:17:01.690Z,98704.91
2022-11-02T13:18:12.898Z,98701.41
2022-11-02T13:19:28.511Z,98707.25
2022-11-02T13:20:42.623Z,98705.69
2022-11-02T13:21:55.301Z,98699.41
2022-11-02T13:23:05.090Z,98702.19
2022-11-02T13:24:16.098Z,98701.47
2022-11-02T13:25:27.826Z,98699.50
2022-11-02T13:26:38.215Z,98700.84
2022-11-02T13:28:25.753Z,98704.87
2022-11-02T13:29:46.128Z,98704.97
2022-11-02T13:30:49.310Z,98711.75
2022-11-02T13:32:00.792Z,98709.69
2022-11-02T13:33:09.285Z,98702.09